EGPF

Glasgow International Airport

Glasgow, United Kingdom
METAR EGPF 201620Z AUTO 22016KT 9999 OVC013 14/13 Q1024
Observed Flight Rules
Oct-20 @ 16:20 UTC (51 minutes ago) Marginal Visual Flight Rules
Wind Visibility Clouds
220° at 16 knots 10,000+ meters
  • Overcast at 1,300' AGL
Temperatures Readings
Current 14°C / 57°F
Dewpoint 13°C / 55°F
Humidity 94%
Altimeter 30.24" Hg
Pressure 1024 hPa
Elevation 8
METAR EGPF 201620Z AUTO 22016KT 9999 OVC013 14/13 Q1024
Observed Flight Rules
Oct-20 @ 16:20 UTC
(51 minutes ago)
MVFR
Wind Visibility
220° at 16 knots 10,000+ meters
Clouds
  • Overcast at 1,300' AGL
Temperature Dewpoint
14°C / 57°F 13°C / 55°F
Humidity Altimeter Pressure
94% 30.24" Hg 1024 hPa